Time;durP1;ratioP1;P1;durP2;ratioP2;P2;SDS_P1;SDS_P2;PMS_P1;PMS_P2;Temp;Humidity;BMP_temperature;BMP_pressure;BME280_temperature;BME280_humidity;BME280_pressure;Samples;Min_cycle;Max_cycle;Signal;HPM_P1;HPM_P2
2022/09/05 00:02:55;;;;;;;5.03;2.90;;;21.00;96.80;;;;;;5154269;27;20197;-68
2022/09/05 00:05:30;;;;;;;6.88;3.20;;;20.90;96.90;;;;;;5130908;27;20051;-69
2022/09/05 00:08:14;;;;;;;5.93;3.10;;;20.90;97.00;;;;;;5121449;27;20043;-69
2022/09/05 00:11:23;;;;;;;5.60;3.10;;;20.90;97.10;;;;;;5135788;27;20055;-69
2022/09/05 00:14:18;;;;;;;5.55;3.00;;;20.90;97.20;;;;;;5104177;27;20051;-69
2022/09/05 00:17:13;;;;;;;5.55;2.90;;;20.80;97.40;;;;;;5130636;27;20072;-69
2022/09/05 00:19:53;;;;;;;4.93;2.80;;;20.80;97.50;;;;;;5152681;27;20150;-68
2022/09/05 00:22:39;;;;;;;7.60;3.00;;;20.80;97.60;;;;;;5172877;27;20042;-69
2022/09/05 00:25:46;;;;;;;7.97;3.22;;;20.70;97.80;;;;;;5167368;27;20046;-69
2022/09/05 00:28:51;;;;;;;5.35;2.90;;;20.70;98.00;;;;;;5108082;27;20049;-68
2022/09/05 00:31:38;;;;;;;5.63;2.90;;;20.60;98.10;;;;;;5117110;27;20375;-69
2022/09/05 00:34:33;;;;;;;6.85;3.10;;;20.60;98.30;;;;;;5169550;27;20050;-69
2022/09/05 00:37:00;;;;;;;7.50;3.05;;;20.60;98.40;;;;;;5127395;27;20410;-69
2022/09/05 00:39:33;;;;;;;6.25;3.03;;;20.50;98.60;;;;;;5154230;27;20521;-69
2022/09/05 00:42:04;;;;;;;5.47;3.10;;;20.50;98.80;;;;;;5151229;27;20058;-67
2022/09/05 00:44:33;;;;;;;4.93;3.20;;;20.50;99.30;;;;;;5147160;27;20078;-67
2022/09/05 00:47:10;;;;;;;5.68;3.20;;;20.40;99.20;;;;;;5174790;27;20410;-70
2022/09/05 00:49:42;;;;;;;6.35;3.38;;;20.40;99.30;;;;;;5154340;27;20463;-67
2022/09/05 00:52:23;;;;;;;6.05;3.22;;;20.30;99.50;;;;;;5168845;27;20042;-67
2022/09/05 00:55:26;;;;;;;6.80;3.70;;;20.30;99.60;;;;;;5139215;27;20387;-67
2022/09/05 00:58:17;;;;;;;5.95;3.55;;;20.30;99.60;;;;;;5149114;27;21762;-67
2022/09/05 01:00:57;;;;;;;8.48;3.75;;;20.30;99.90;;;;;;5147345;27;20081;-66
2022/09/05 01:03:46;;;;;;;4.70;3.45;;;20.20;99.90;;;;;;5147216;27;20075;-67
2022/09/05 01:06:33;;;;;;;8.10;3.83;;;20.20;99.90;;;;;;5173150;27;20046;-66
2022/09/05 01:09:20;;;;;;;7.82;3.50;;;20.10;99.90;;;;;;5156937;27;20064;-66
2022/09/05 01:12:01;;;;;;;7.45;3.80;;;20.10;99.90;;;;;;5137811;27;20058;-67
2022/09/05 01:14:51;;;;;;;6.47;3.92;;;20.10;99.90;;;;;;5150423;27;20042;-67
2022/09/05 01:17:31;;;;;;;7.57;3.83;;;20.30;99.90;;;;;;5117092;27;20094;-67
2022/09/05 01:20:14;;;;;;;7.45;4.05;;;20.00;99.90;;;;;;5153723;27;20119;-67
2022/09/05 01:22:46;;;;;;;5.80;3.83;;;20.00;99.90;;;;;;5156438;27;20075;-68
2022/09/05 01:25:30;;;;;;;7.25;4.03;;;20.00;99.90;;;;;;5146154;27;20038;-67
2022/09/05 01:28:12;;;;;;;7.20;4.28;;;19.90;99.90;;;;;;5161396;27;20054;-67
2022/09/05 01:31:03;;;;;;;9.55;3.95;;;19.90;99.90;;;;;;5159182;27;20058;-67
2022/09/05 01:34:01;;;;;;;5.82;4.07;;;19.90;99.90;;;;;;5155746;27;20046;-67
2022/09/05 01:37:03;;;;;;;9.23;4.18;;;19.90;99.90;;;;;;5140585;27;20049;-67
2022/09/05 01:39:57;;;;;;;7.03;4.55;;;19.90;99.90;;;;;;5157885;27;20142;-67
2022/09/05 01:42:43;;;;;;;6.60;4.20;;;19.90;99.90;;;;;;5140117;27;20122;-68
2022/09/05 01:45:25;;;;;;;5.78;4.10;;;19.90;99.90;;;;;;5157643;27;20054;-68
2022/09/05 01:48:03;;;;;;;10.57;4.00;;;19.90;99.90;;;;;;5173812;27;20459;-68
2022/09/05 01:50:50;;;;;;;6.75;4.40;;;19.70;99.90;;;;;;5173596;27;20547;-68
2022/09/05 01:53:47;;;;;;;7.97;4.18;;;19.80;99.90;;;;;;5152599;27;20081;-69
2022/09/05 01:56:40;;;;;;;9.70;4.20;;;19.80;99.90;;;;;;5178065;27;20117;-68
2022/09/05 01:59:08;;;;;;;8.88;4.28;;;19.70;99.90;;;;;;5178234;27;20034;-68
2022/09/05 02:02:08;;;;;;;7.95;4.15;;;19.70;99.90;;;;;;5178036;27;20386;-69
2022/09/05 02:04:58;;;;;;;7.40;4.03;;;19.70;99.90;;;;;;5156659;27;20130;-68
2022/09/05 02:07:33;;;;;;;6.60;4.32;;;19.60;99.90;;;;;;5165150;27;20113;-68
2022/09/05 02:10:31;;;;;;;7.43;4.90;;;19.60;99.90;;;;;;5178175;27;20102;-68
2022/09/05 02:13:11;;;;;;;8.20;4.43;;;19.60;99.90;;;;;;5149571;27;20045;-68
2022/09/05 02:15:51;;;;;;;8.05;4.50;;;19.60;99.90;;;;;;5171641;27;20551;-68
2022/09/05 02:18:25;;;;;;;8.25;4.25;;;19.50;99.90;;;;;;5158827;27;20065;-68
2022/09/05 02:20:58;;;;;;;7.35;4.32;;;19.50;99.90;;;;;;5174758;27;20049;-68
2022/09/05 02:23:36;;;;;;;9.80;4.30;;;19.40;99.90;;;;;;5155437;27;20079;-68
2022/09/05 02:26:11;;;;;;;7.72;4.30;;;19.50;99.90;;;;;;5156966;27;20038;-68
2022/09/05 02:28:59;;;;;;;5.85;4.30;;;19.40;99.90;;;;;;5139475;27;20135;-68
2022/09/05 02:31:37;;;;;;;5.32;4.07;;;19.40;99.90;;;;;;5139043;27;20039;-68
2022/09/05 02:34:45;;;;;;;7.63;4.40;;;19.30;99.90;;;;;;5154648;27;20046;-68
2022/09/05 02:37:18;;;;;;;6.32;4.45;;;19.30;99.90;;;;;;5041691;28;20591;-68
2022/09/05 02:40:22;;;;;;;8.20;4.40;;;19.30;99.90;;;;;;5107741;27;20138;-68
2022/09/05 02:43:11;;;;;;;5.22;4.00;;;19.30;99.90;;;;;;5159485;27;20038;-68
2022/09/05 02:45:57;;;;;;;9.48;4.53;;;19.30;99.90;;;;;;5177430;27;20038;-68
2022/09/05 02:48:44;;;;;;;10.02;4.13;;;19.20;99.90;;;;;;5142094;27;20232;-69
2022/09/05 02:51:27;;;;;;;7.25;3.97;;;19.20;99.90;;;;;;5156420;27;20455;-68
2022/09/05 02:54:16;;;;;;;7.35;4.10;;;19.10;99.90;;;;;;5176687;27;20050;-69
2022/09/05 02:56:57;;;;;;;6.07;4.05;;;19.30;99.90;;;;;;5175586;27;20049;-68
2022/09/05 02:59:40;;;;;;;7.60;4.53;;;19.10;99.90;;;;;;5175244;27;20030;-68
2022/09/05 03:02:31;;;;;;;8.77;4.68;;;19.10;99.90;;;;;;5176373;27;20069;-68
2022/09/05 03:05:18;;;;;;;6.65;4.30;;;19.00;99.90;;;;;;5141011;27;20510;-69
2022/09/05 03:08:06;;;;;;;10.43;4.20;;;19.00;99.90;;;;;;5167273;27;20045;-69
2022/09/05 03:10:50;;;;;;;8.23;4.60;;;19.00;99.90;;;;;;5163598;27;20049;-69
2022/09/05 03:13:43;;;;;;;8.90;4.47;;;18.90;99.90;;;;;;5154748;27;20046;-69
2022/09/05 03:16:36;;;;;;;7.55;5.03;;;18.90;99.90;;;;;;5173192;27;20053;-69
2022/09/05 03:19:39;;;;;;;8.90;4.60;;;18.80;99.90;;;;;;5157039;27;20046;-68
2022/09/05 03:22:23;;;;;;;7.65;4.35;;;18.80;99.90;;;;;;5170276;27;20386;-69
2022/09/05 03:25:38;;;;;;;7.07;4.28;;;18.80;99.90;;;;;;5172065;27;20038;-68
2022/09/05 03:28:31;;;;;;;6.65;4.43;;;18.70;99.90;;;;;;5148490;27;20363;-69
2022/09/05 03:31:25;;;;;;;9.43;4.43;;;18.70;99.90;;;;;;5144934;27;20054;-68
2022/09/05 03:34:28;;;;;;;8.13;4.43;;;18.60;99.90;;;;;;5174024;27;20046;-69
2022/09/05 03:37:12;;;;;;;5.78;4.30;;;18.60;99.90;;;;;;5159561;27;20076;-69
2022/09/05 03:40:10;;;;;;;7.55;4.60;;;18.50;99.90;;;;;;5155549;27;20049;-69
2022/09/05 03:43:07;;;;;;;9.30;4.65;;;18.50;99.90;;;;;;5155161;27;20045;-69
2022/09/05 03:45:35;;;;;;;5.22;4.00;;;18.50;99.90;;;;;;5155240;27;20050;-68
2022/09/05 03:48:19;;;;;;;6.13;4.55;;;18.50;99.90;;;;;;5161032;27;20494;-68
2022/09/05 03:51:07;;;;;;;7.32;4.45;;;18.40;99.90;;;;;;5174893;27;20045;-68
2022/09/05 03:54:01;;;;;;;5.80;4.15;;;18.40;99.90;;;;;;5172674;27;20034;-69
2022/09/05 03:56:45;;;;;;;7.35;4.72;;;18.40;99.90;;;;;;5147208;27;20042;-69
2022/09/05 03:59:29;;;;;;;8.02;4.63;;;18.40;99.90;;;;;;5129404;27;20114;-69
2022/09/05 04:02:03;;;;;;;7.40;4.32;;;18.40;99.90;;;;;;5158158;27;20094;-69
2022/09/05 04:04:41;;;;;;;7.03;4.60;;;18.40;99.90;;;;;;5175848;27;20038;-69
2022/09/05 04:07:32;;;;;;;7.95;4.43;;;18.40;99.90;;;;;;5156976;27;20419;-68
2022/09/05 04:10:10;;;;;;;5.95;4.65;;;18.40;99.90;;;;;;5163508;27;20054;-69
2022/09/05 04:12:42;;;;;;;7.18;4.65;;;18.30;99.90;;;;;;5155769;27;20094;-68
2022/09/05 04:15:30;;;;;;;6.93;4.68;;;18.30;99.90;;;;;;5157412;27;20043;-69
2022/09/05 04:18:03;;;;;;;5.78;4.53;;;18.30;99.90;;;;;;5156200;27;20414;-69
2022/09/05 04:20:46;;;;;;;8.45;4.50;;;18.70;99.90;;;;;;5135970;27;20046;-69
2022/09/05 04:23:18;;;;;;;7.65;4.97;;;18.20;99.90;;;;;;5155648;27;20439;-67
2022/09/05 04:26:14;;;;;;;5.55;4.40;;;18.20;99.90;;;;;;5155768;27;20391;-67
2022/09/05 04:29:17;;;;;;;7.38;5.10;;;18.20;99.90;;;;;;5151853;27;20065;-67
2022/09/05 04:32:08;;;;;;;8.70;5.13;;;18.10;99.90;;;;;;5067349;28;20060;-67
2022/09/05 04:35:03;;;;;;;6.05;4.55;;;18.10;99.90;;;;;;5155376;27;20051;-67
2022/09/05 04:37:38;;;;;;;6.55;4.70;;;18.10;99.90;;;;;;5126352;27;20127;-67
2022/09/05 04:40:34;;;;;;;8.25;5.00;;;18.00;99.90;;;;;;5154819;27;20046;-67
2022/09/05 04:43:27;;;;;;;8.70;5.22;;;18.00;99.90;;;;;;5154731;27;20053;-67
2022/09/05 04:46:17;;;;;;;9.25;4.90;;;18.00;99.90;;;;;;5171080;27;20118;-67
2022/09/05 04:49:22;;;;;;;8.50;4.68;;;18.00;99.90;;;;;;5152129;27;20126;-68
2022/09/05 04:52:20;;;;;;;9.93;4.78;;;18.00;99.90;;;;;;5151790;27;20063;-68
2022/09/05 04:54:53;;;;;;;6.38;5.07;;;17.90;99.90;;;;;;5135438;27;20070;-68
2022/09/05 04:57:24;;;;;;;6.40;4.90;;;17.90;99.90;;;;;;5152944;27;20046;-68
2022/09/05 04:59:58;;;;;;;8.95;5.55;;;17.90;99.90;;;;;;5174704;27;20045;-67
2022/09/05 05:02:32;;;;;;;10.68;5.20;;;17.90;99.90;;;;;;5169565;27;20041;-67
2022/09/05 05:05:04;;;;;;;10.85;5.45;;;17.90;99.90;;;;;;5154257;27;20121;-68
2022/09/05 05:07:45;;;;;;;7.30;4.85;;;17.90;99.90;;;;;;5146322;27;20047;-68
2022/09/05 05:10:23;;;;;;;12.35;5.13;;;17.90;99.90;;;;;;5152203;27;20403;-67
2022/09/05 05:13:14;;;;;;;10.00;5.18;;;17.90;99.90;;;;;;5152745;27;20042;-68
2022/09/05 05:15:57;;;;;;;8.05;5.18;;;17.80;99.90;;;;;;5153934;27;20053;-68
2022/09/05 05:18:31;;;;;;;9.23;5.35;;;17.80;99.90;;;;;;5150697;27;20492;-68
2022/09/05 05:21:04;;;;;;;8.90;5.43;;;17.80;99.90;;;;;;5163743;27;20114;-68
2022/09/05 05:23:47;;;;;;;8.90;5.30;;;17.80;99.90;;;;;;5146204;27;20034;-68
2022/09/05 05:26:29;;;;;;;10.05;5.43;;;17.80;99.90;;;;;;5155207;27;20054;-68
2022/09/05 05:29:31;;;;;;;8.45;5.32;;;17.80;99.90;;;;;;5157447;27;20085;-67
2022/09/05 05:32:01;;;;;;;9.52;5.15;;;17.80;99.90;;;;;;5153046;27;20090;-68
2022/09/05 05:34:33;;;;;;;8.88;5.35;;;17.80;99.90;;;;;;5160019;27;20049;-67
2022/09/05 05:37:14;;;;;;;6.43;4.80;;;17.90;99.90;;;;;;5167534;27;20070;-67
2022/09/05 05:40:18;;;;;;;10.18;5.65;;;17.80;99.90;;;;;;5166068;27;20050;-67
2022/09/05 05:42:45;;;;;;;11.18;5.60;;;17.90;99.90;;;;;;5068911;28;20048;-68
2022/09/05 05:45:22;;;;;;;9.43;5.22;;;17.90;99.90;;;;;;5136828;27;20080;-67
2022/09/05 05:47:53;;;;;;;9.73;5.40;;;17.90;99.90;;;;;;5135814;27;20471;-68
2022/09/05 05:50:24;;;;;;;14.77;6.10;;;17.90;99.90;;;;;;5153432;27;20047;-68
2022/09/05 05:52:57;;;;;;;10.88;5.57;;;18.00;99.90;;;;;;5153213;27;20087;-68
2022/09/05 05:55:56;;;;;;;8.30;5.43;;;18.00;99.90;;;;;;5119086;27;20038;-68
2022/09/05 05:58:53;;;;;;;9.32;6.15;;;17.90;99.90;;;;;;5132745;27;20043;-68
2022/09/05 06:01:46;;;;;;;9.55;5.85;;;18.00;99.90;;;;;;5153066;27;20045;-68
2022/09/05 06:04:24;;;;;;;18.35;6.13;;;18.00;99.90;;;;;;5134322;27;20039;-68
2022/09/05 06:07:20;;;;;;;12.77;5.93;;;18.10;99.90;;;;;;5120561;27;20485;-69
2022/09/05 06:10:09;;;;;;;8.55;6.00;;;18.10;99.90;;;;;;5156922;27;20440;-68
2022/09/05 06:13:10;;;;;;;8.82;5.90;;;18.20;99.90;;;;;;5138021;27;20165;-68
2022/09/05 06:15:54;;;;;;;10.88;5.82;;;18.20;99.90;;;;;;5138182;27;20050;-68
2022/09/05 06:18:28;;;;;;;10.48;6.00;;;18.30;99.90;;;;;;5156023;27;20038;-67
2022/09/05 06:21:27;;;;;;;15.32;6.00;;;18.30;99.90;;;;;;5138140;27;20076;-68
2022/09/05 06:23:55;;;;;;;10.85;5.80;;;18.40;99.90;;;;;;5156702;27;20394;-68
2022/09/05 06:26:59;;;;;;;13.50;6.32;;;18.50;99.90;;;;;;5160450;27;20042;-68
2022/09/05 06:29:34;;;;;;;10.85;6.28;;;18.50;99.90;;;;;;5155799;27;20107;-68
2022/09/05 06:32:05;;;;;;;11.75;5.88;;;18.60;99.90;;;;;;5176763;27;20153;-68
2022/09/05 06:34:42;;;;;;;11.15;5.80;;;18.60;99.90;;;;;;5177388;27;20042;-68
2022/09/05 06:37:47;;;;;;;12.00;6.35;;;18.70;99.90;;;;;;5177111;27;20117;-68
2022/09/05 06:40:25;;;;;;;11.95;5.85;;;18.80;99.90;;;;;;5143318;27;20061;-68
2022/09/05 06:43:26;;;;;;;13.30;6.40;;;18.90;99.90;;;;;;5152793;27;20089;-68
2022/09/05 06:46:04;;;;;;;12.88;6.20;;;19.10;99.90;;;;;;5137650;27;20062;-67
2022/09/05 06:48:58;;;;;;;11.00;6.22;;;19.20;99.90;;;;;;5155883;27;20093;-68
2022/09/05 06:51:41;;;;;;;15.93;6.53;;;19.30;99.90;;;;;;5137250;27;20394;-68
2022/09/05 06:54:22;;;;;;;10.40;5.80;;;19.50;99.90;;;;;;5134963;27;20050;-68
2022/09/05 06:57:20;;;;;;;12.38;5.97;;;19.70;99.90;;;;;;5155545;27;20114;-68
2022/09/05 06:59:57;;;;;;;14.50;6.28;;;19.80;99.90;;;;;;5116832;27;20352;-68
2022/09/05 07:02:35;;;;;;;8.75;5.97;;;19.90;99.90;;;;;;5116767;27;20100;-68
2022/09/05 07:05:07;;;;;;;11.23;6.10;;;20.00;99.90;;;;;;5147244;27;20035;-68
2022/09/05 07:07:46;;;;;;;10.73;6.15;;;20.20;99.90;;;;;;5144536;27;20125;-67
2022/09/05 07:10:22;;;;;;;13.45;6.38;;;20.20;99.90;;;;;;5154924;27;20046;-67
2022/09/05 07:12:55;;;;;;;12.30;5.95;;;20.40;99.90;;;;;;5134728;27;20437;-71
2022/09/05 07:15:39;;;;;;;11.82;6.05;;;20.50;99.90;;;;;;5115883;27;20054;-70
2022/09/05 07:18:12;;;;;;;11.60;6.32;;;20.60;99.90;;;;;;5099249;27;20391;-70
2022/09/05 07:21:06;;;;;;;11.30;6.15;;;20.70;99.90;;;;;;5138080;27;20047;-70
2022/09/05 07:23:55;;;;;;;10.20;5.80;;;20.80;99.90;;;;;;5143899;27;20040;-70
2022/09/05 07:26:23;;;;;;;9.38;5.80;;;21.00;99.90;;;;;;5148440;27;20046;-70
2022/09/05 07:28:53;;;;;;;12.65;5.88;;;21.20;99.90;;;;;;5142639;27;20042;-70
2022/09/05 07:31:26;;;;;;;12.48;5.57;;;21.30;99.90;;;;;;5145257;27;20051;-70
2022/09/05 07:34:16;;;;;;;10.90;5.82;;;21.40;99.90;;;;;;5142822;27;20039;-70
2022/09/05 07:36:46;;;;;;;10.02;5.68;;;21.50;99.90;;;;;;5149727;27;20050;-70
2022/09/05 07:39:23;;;;;;;11.32;6.20;;;21.60;99.90;;;;;;5147261;27;20053;-71
2022/09/05 07:41:54;;;;;;;14.55;5.60;;;21.70;99.90;;;;;;5150430;27;20041;-68
2022/09/05 07:44:37;;;;;;;10.18;5.43;;;21.60;99.90;;;;;;5144731;27;20118;-70
2022/09/05 07:47:20;;;;;;;8.80;5.50;;;21.60;99.90;;;;;;5139093;27;20068;-70
2022/09/05 07:49:47;;;;;;;11.75;5.65;;;21.60;99.90;;;;;;5149316;27;20035;-70
2022/09/05 07:52:19;;;;;;;8.50;5.30;;;21.70;99.90;;;;;;5138540;27;20188;-69
2022/09/05 07:54:46;;;;;;;10.25;5.78;;;21.70;99.90;;;;;;5137067;27;20451;-70
2022/09/05 07:57:20;;;;;;;9.82;4.97;;;21.70;99.90;;;;;;5138147;27;20339;-70
2022/09/05 07:59:50;;;;;;;11.10;5.35;;;21.70;99.90;;;;;;5156270;27;20142;-69
2022/09/05 08:02:16;;;;;;;10.15;5.30;;;21.80;99.90;;;;;;5175125;27;20042;-70
2022/09/05 08:04:42;;;;;;;9.68;5.05;;;21.80;99.90;;;;;;5140546;27;20049;-70
2022/09/05 08:07:32;;;;;;;8.48;5.70;;;21.90;99.90;;;;;;5146175;27;20502;-66
2022/09/05 08:10:05;;;;;;;10.25;5.32;;;22.00;99.90;;;;;;5115378;27;20031;-67
2022/09/05 08:12:43;;;;;;;8.88;5.30;;;22.00;99.90;;;;;;5122081;27;20035;-67
2022/09/05 08:15:17;;;;;;;12.48;5.32;;;22.10;99.90;;;;;;5140477;27;20146;-67
2022/09/05 08:18:01;;;;;;;8.23;5.23;;;22.20;99.90;;;;;;5119267;27;20095;-67
2022/09/05 08:20:34;;;;;;;9.07;4.53;;;22.40;99.90;;;;;;5121443;27;20034;-67
2022/09/05 08:23:24;;;;;;;11.32;5.05;;;22.60;99.90;;;;;;5134398;27;20114;-67
2022/09/05 08:26:12;;;;;;;8.60;5.25;;;22.80;99.90;;;;;;5150422;27;20179;-68
2022/09/05 08:29:01;;;;;;;7.97;5.22;;;23.00;99.90;;;;;;5154197;27;20054;-68
2022/09/05 08:31:33;;;;;;;7.97;4.93;;;23.10;99.90;;;;;;5122414;27;20582;-67
2022/09/05 08:34:01;;;;;;;7.78;4.60;;;23.30;99.90;;;;;;5143701;27;20518;-68
2022/09/05 08:36:35;;;;;;;11.40;4.78;;;23.40;99.90;;;;;;5146541;27;20035;-68
2022/09/05 08:39:02;;;;;;;7.10;4.20;;;23.70;99.90;;;;;;5116642;27;20059;-68
2022/09/05 08:41:43;;;;;;;8.40;4.03;;;23.90;99.90;;;;;;5151156;27;20054;-68
2022/09/05 08:44:17;;;;;;;10.63;4.53;;;24.10;99.90;;;;;;5152607;27;20114;-67
2022/09/05 08:46:52;;;;;;;7.05;4.30;;;24.30;99.90;;;;;;5132497;27;20055;-68
2022/09/05 08:50:16;;;;;;;7.20;4.70;;;24.50;99.90;;;;;;5136760;27;20095;-68
2022/09/05 08:52:47;;;;;;;7.05;5.20;;;24.70;99.90;;;;;;5110800;27;20054;-68
2022/09/05 08:55:34;;;;;;;9.00;5.00;;;24.80;99.90;;;;;;5153677;27;20045;-68
2022/09/05 08:58:24;;;;;;;7.05;4.70;;;24.80;99.90;;;;;;5138864;27;20031;-68
2022/09/05 09:01:13;;;;;;;8.88;4.30;;;24.90;99.90;;;;;;5132480;28;20082;-68
2022/09/05 09:04:01;;;;;;;9.77;4.70;;;25.00;99.90;;;;;;5132554;28;20054;-68
2022/09/05 09:06:51;;;;;;;10.15;4.88;;;25.30;99.90;;;;;;5131986;28;20042;-68
2022/09/05 09:09:22;;;;;;;7.85;5.30;;;25.50;99.80;;;;;;5162464;27;20039;-68
2022/09/05 09:12:09;;;;;;;8.45;5.15;;;25.70;98.90;;;;;;5132226;28;20436;-68
2022/09/05 09:14:54;;;;;;;12.13;5.00;;;25.80;98.90;;;;;;5148656;27;20051;-68
2022/09/05 09:17:26;;;;;;;15.05;5.20;;;26.00;99.20;;;;;;5132459;28;20168;-68
2022/09/05 09:20:04;;;;;;;8.80;4.70;;;26.20;98.70;;;;;;5132942;28;20048;-68
2022/09/05 09:22:40;;;;;;;8.90;4.43;;;26.40;98.60;;;;;;5148744;27;20391;-68
2022/09/05 09:25:13;;;;;;;11.10;4.57;;;26.70;98.40;;;;;;5131726;27;20040;-68
2022/09/05 09:27:54;;;;;;;10.05;4.50;;;27.00;98.00;;;;;;5131581;28;20439;-68
2022/09/05 09:30:20;;;;;;;13.25;3.80;;;27.30;97.80;;;;;;5132208;28;20072;-68
2022/09/05 09:32:48;;;;;;;11.00;4.93;;;27.70;97.40;;;;;;5123680;27;20050;-69
2022/09/05 09:35:46;;;;;;;8.18;4.30;;;27.90;96.50;;;;;;5151756;27;20039;-68
2022/09/05 09:38:18;;;;;;;9.43;4.40;;;28.00;96.20;;;;;;5086566;28;20099;-68
2022/09/05 09:41:03;;;;;;;8.48;4.60;;;28.30;96.00;;;;;;5132628;28;20051;-68
2022/09/05 09:43:46;;;;;;;9.40;4.22;;;28.50;95.50;;;;;;5135857;27;20043;-68
2022/09/05 09:46:26;;;;;;;10.52;3.80;;;28.60;95.20;;;;;;5135900;27;20046;-68
2022/09/05 09:49:13;;;;;;;9.55;3.88;;;28.80;95.10;;;;;;5117616;27;20047;-67
2022/09/05 09:52:03;;;;;;;8.93;4.47;;;29.00;94.60;;;;;;5135703;27;20043;-67
2022/09/05 09:54:50;;;;;;;8.52;4.22;;;29.30;94.30;;;;;;5136287;27;20096;-67
2022/09/05 09:57:58;;;;;;;9.43;3.70;;;29.40;94.10;;;;;;5117489;27;20129;-68
2022/09/05 10:00:26;;;;;;;8.23;3.80;;;29.60;94.40;;;;;;5137003;27;20110;-67
2022/09/05 10:03:13;;;;;;;9.48;3.42;;;30.00;93.90;;;;;;5173721;27;20045;-68
2022/09/05 10:06:00;;;;;;;10.90;3.20;;;30.30;93.20;;;;;;5159783;27;20056;-68
2022/09/05 10:09:03;;;;;;;7.55;3.10;;;30.40;92.50;;;;;;5177761;27;20525;-67
2022/09/05 10:11:53;;;;;;;5.82;2.97;;;30.60;92.50;;;;;;5147539;27;20483;-68
2022/09/05 10:14:58;;;;;;;6.63;3.20;;;30.60;92.30;;;;;;5138010;27;20070;-68
2022/09/05 10:17:51;;;;;;;6.57;3.15;;;30.60;92.00;;;;;;5156531;27;20042;-68
2022/09/05 10:20:36;;;;;;;5.80;2.80;;;30.70;92.20;;;;;;5146306;27;20042;-69
2022/09/05 10:23:14;;;;;;;5.03;2.60;;;31.00;92.20;;;;;;5174534;27;20045;-71
2022/09/05 10:26:17;;;;;;;5.25;2.67;;;31.10;91.80;;;;;;5136934;27;20576;-70
2022/09/05 10:29:05;;;;;;;6.55;2.80;;;31.20;91.60;;;;;;5132506;27;20047;-70
2022/09/05 10:31:56;;;;;;;5.60;3.00;;;31.30;91.40;;;;;;5132510;27;20083;-70
2022/09/05 10:34:57;;;;;;;6.82;2.95;;;31.30;91.50;;;;;;5139909;27;20054;-70
2022/09/05 10:37:34;;;;;;;4.88;3.20;;;31.20;91.10;;;;;;5134891;27;20394;-70
2022/09/05 10:40:07;;;;;;;6.97;3.00;;;31.10;90.90;;;;;;5153207;27;20066;-69
2022/09/05 10:42:53;;;;;;;7.78;2.50;;;31.10;91.00;;;;;;5134545;27;20428;-69
2022/09/05 10:45:50;;;;;;;5.40;2.50;;;31.20;91.20;;;;;;5134352;27;20825;-69
2022/09/05 10:48:21;;;;;;;5.47;2.80;;;31.60;91.20;;;;;;5093354;27;20120;-69
2022/09/05 10:50:52;;;;;;;4.93;2.42;;;31.90;90.60;;;;;;5135880;27;20363;-69
2022/09/05 10:53:26;;;;;;;5.53;2.53;;;32.40;90.30;;;;;;5151393;27;20383;-70
2022/09/05 10:56:01;;;;;;;5.13;2.50;;;32.80;89.00;;;;;;5151155;27;20395;-70
2022/09/05 10:58:32;;;;;;;3.70;2.58;;;32.90;88.50;;;;;;5154025;27;20084;-70
2022/09/05 11:01:15;;;;;;;6.85;2.50;;;32.90;88.50;;;;;;5155990;27;20047;-70
2022/09/05 11:03:50;;;;;;;5.05;2.35;;;33.00;87.40;;;;;;5136979;27;20130;-70
2022/09/05 11:06:19;;;;;;;3.95;2.13;;;32.90;88.30;;;;;;5136943;27;20129;-70
2022/09/05 11:09:23;;;;;;;5.45;2.22;;;33.20;87.70;;;;;;5154712;27;20141;-70
2022/09/05 11:12:27;;;;;;;5.63;2.30;;;33.50;88.30;;;;;;5163409;27;20050;-70
2022/09/05 11:14:57;;;;;;;4.35;2.50;;;34.00;86.20;;;;;;5168843;27;20138;-70
2022/09/05 11:17:46;;;;;;;3.72;2.00;;;34.40;86.10;;;;;;5138266;27;20122;-70
2022/09/05 11:20:27;;;;;;;6.75;2.05;;;34.80;84.80;;;;;;5165883;27;20042;-70
2022/09/05 11:23:00;;;;;;;4.32;2.10;;;35.40;83.10;;;;;;5136508;27;20046;-70
2022/09/05 11:25:28;;;;;;;4.53;2.30;;;35.90;80.80;;;;;;5147644;27;20123;-70
2022/09/05 11:27:59;;;;;;;4.68;2.08;;;36.20;79.40;;;;;;5143543;27;20154;-70
2022/09/05 11:30:30;;;;;;;4.18;1.90;;;36.40;79.40;;;;;;5171831;27;20092;-71
2022/09/05 11:33:14;;;;;;;5.30;2.33;;;36.70;78.20;;;;;;5175328;27;20105;-70
2022/09/05 11:35:47;;;;;;;4.78;2.10;;;36.90;77.50;;;;;;5157564;27;20042;-70
2022/09/05 11:38:37;;;;;;;3.25;2.05;;;37.20;76.80;;;;;;5157453;27;20145;-70
2022/09/05 11:41:37;;;;;;;5.63;2.20;;;37.30;76.40;;;;;;5157129;27;20094;-70
2022/09/05 11:44:27;;;;;;;3.72;2.20;;;37.00;76.00;;;;;;5175904;27;20504;-70
2022/09/05 11:47:05;;;;;;;6.45;2.53;;;36.40;76.40;;;;;;5175806;27;20121;-70
2022/09/05 11:49:55;;;;;;;4.45;2.00;;;35.90;77.50;;;;;;5176179;27;20038;-69
2022/09/05 11:52:39;;;;;;;7.10;2.00;;;35.90;77.90;;;;;;5143912;27;20043;-69
2022/09/05 11:55:26;;;;;;;4.18;2.25;;;36.00;78.10;;;;;;5098663;27;20055;-70
2022/09/05 11:57:51;;;;;;;5.72;2.30;;;36.10;77.60;;;;;;5115807;27;20047;-69
2022/09/05 12:00:40;;;;;;;5.88;2.20;;;36.00;77.90;;;;;;5116790;27;20073;-71
2022/09/05 12:03:10;;;;;;;5.43;2.10;;;35.90;78.10;;;;;;5144632;27;20034;-70
2022/09/05 12:06:20;;;;;;;5.28;2.40;;;35.90;76.60;;;;;;5150843;27;20070;-70
2022/09/05 12:09:17;;;;;;;4.47;2.08;;;36.00;77.50;;;;;;5131965;27;20133;-69
2022/09/05 12:12:09;;;;;;;4.65;2.10;;;36.80;76.40;;;;;;5111518;27;20077;-70
2022/09/05 12:14:45;;;;;;;4.43;1.95;;;39.00;74.10;;;;;;5152534;27;20114;-69
2022/09/05 12:17:28;;;;;;;5.10;2.03;;;40.70;72.50;;;;;;5151138;27;20057;-69
2022/09/05 12:20:11;;;;;;;7.05;2.00;;;41.90;70.90;;;;;;5152373;27;20038;-69
2022/09/05 12:22:41;;;;;;;6.35;2.00;;;41.30;69.10;;;;;;5132645;27;20048;-70
2022/09/05 12:25:58;;;;;;;4.15;2.10;;;40.20;69.00;;;;;;5151280;27;20142;-69
2022/09/05 12:28:35;;;;;;;7.45;2.05;;;38.70;70.00;;;;;;5104602;27;20138;-69
2022/09/05 12:31:49;;;;;;;3.05;1.92;;;37.40;70.80;;;;;;5136766;27;20057;-69
2022/09/05 12:34:49;;;;;;;4.32;2.00;;;36.30;71.30;;;;;;5131707;27;20055;-69
2022/09/05 12:37:22;;;;;;;2.83;1.88;;;35.40;72.60;;;;;;5150920;27;20133;-69
2022/09/05 12:39:56;;;;;;;4.30;2.00;;;35.00;73.30;;;;;;5152052;27;20047;-70
2022/09/05 12:42:47;;;;;;;6.03;2.30;;;34.80;73.80;;;;;;5138571;27;20038;-68
2022/09/05 12:45:46;;;;;;;3.50;2.20;;;34.60;73.90;;;;;;5149011;27;20123;-68
2022/09/05 12:48:20;;;;;;;5.90;2.40;;;34.40;74.50;;;;;;5146249;27;20436;-68
2022/09/05 12:51:14;;;;;;;4.05;2.30;;;34.20;74.40;;;;;;5153941;27;20441;-68
2022/09/05 12:53:46;;;;;;;5.32;2.30;;;33.90;74.20;;;;;;5153511;27;20095;-68
2022/09/05 12:56:39;;;;;;;5.95;2.22;;;33.70;74.80;;;;;;5117969;27;20047;-68
2022/09/05 12:59:12;;;;;;;6.78;2.20;;;33.60;74.90;;;;;;5139720;27;20030;-68
2022/09/05 13:01:42;;;;;;;6.07;2.50;;;33.60;75.00;;;;;;5160380;27;20077;-68
2022/09/05 13:04:22;;;;;;;6.57;2.22;;;33.60;75.10;;;;;;5156385;27;20039;-68
2022/09/05 13:06:59;;;;;;;4.45;2.42;;;33.30;75.50;;;;;;5159935;27;20414;-68
2022/09/05 13:09:40;;;;;;;6.53;2.47;;;33.20;75.80;;;;;;5168154;27;20071;-68
2022/09/05 13:12:26;;;;;;;3.63;2.28;;;33.00;75.40;;;;;;5173975;27;20122;-68
2022/09/05 13:15:06;;;;;;;6.63;2.35;;;32.80;76.10;;;;;;5148110;27;20043;-68
2022/09/05 13:17:40;;;;;;;8.52;2.53;;;32.70;76.10;;;;;;5146172;27;20085;-69
2022/09/05 13:20:38;;;;;;;6.40;2.53;;;32.70;75.90;;;;;;5157523;27;20126;-69
2022/09/05 13:23:29;;;;;;;4.78;2.30;;;32.60;76.10;;;;;;5116100;27;20506;-69
2022/09/05 13:26:06;;;;;;;5.18;2.03;;;32.50;76.30;;;;;;5137174;27;20050;-70
2022/09/05 13:28:56;;;;;;;5.57;2.25;;;32.40;76.30;;;;;;5137039;27;20077;-68
2022/09/05 13:31:40;;;;;;;6.63;2.40;;;32.40;77.00;;;;;;5150379;27;20058;-69
2022/09/05 13:34:15;;;;;;;4.45;2.45;;;32.60;76.60;;;;;;5157316;27;20054;-68
2022/09/05 13:36:50;;;;;;;5.13;2.40;;;32.60;76.30;;;;;;5162503;27;20400;-68
2022/09/05 13:39:26;;;;;;;5.43;2.38;;;32.80;76.40;;;;;;5138854;27;20043;-68
2022/09/05 13:41:58;;;;;;;4.30;2.35;;;32.80;76.20;;;;;;5157523;27;20038;-68
2022/09/05 13:44:25;;;;;;;3.78;2.20;;;32.60;76.00;;;;;;5165704;27;20443;-68
2022/09/05 13:46:53;;;;;;;6.50;2.20;;;32.60;76.40;;;;;;5157556;27;20043;-68
2022/09/05 13:49:25;;;;;;;5.13;2.00;;;32.50;76.40;;;;;;5152828;27;20045;-68
2022/09/05 13:52:14;;;;;;;3.97;2.00;;;32.30;76.30;;;;;;5151230;27;20045;-76
2022/09/05 13:54:50;;;;;;;4.05;2.30;;;32.10;76.80;;;;;;5115105;27;20058;-76
2022/09/05 13:57:30;;;;;;;7.50;2.33;;;31.80;77.20;;;;;;5133751;27;20046;-75
2022/09/05 14:00:09;;;;;;;3.88;2.20;;;31.70;77.70;;;;;;5114772;27;20519;-76
2022/09/05 14:03:01;;;;;;;4.32;2.20;;;31.70;78.00;;;;;;5133058;27;20054;-76
2022/09/05 14:05:36;;;;;;;5.75;2.17;;;31.80;77.90;;;;;;5123620;27;20475;-75
2022/09/05 14:08:30;;;;;;;4.38;2.15;;;31.90;76.80;;;;;;5133920;27;20062;-76
2022/09/05 14:11:15;;;;;;;4.95;2.28;;;31.80;76.90;;;;;;5148080;27;20425;-77